sensor_id;sensor_type;location;lat;lon;timestamp;pressure;altitude;pressure_sealevel;temperature
69007;BMP180;56061;51.748;19.620;2022-12-18T00:01:26;100263.40;;;-3.20
69007;BMP180;56061;51.748;19.620;2022-12-18T00:03:55;100272.80;;;-3.24
69007;BMP180;56061;51.748;19.620;2022-12-18T00:06:23;100272.40;;;-3.30
69007;BMP180;56061;51.748;19.620;2022-12-18T00:08:50;100271.20;;;-3.26
69007;BMP180;56061;51.748;19.620;2022-12-18T00:11:20;100271.20;;;-3.20
69007;BMP180;56061;51.748;19.620;2022-12-18T00:13:48;100272.80;;;-3.20
69007;BMP180;56061;51.748;19.620;2022-12-18T00:16:19;100275.80;;;-3.30
69007;BMP180;56061;51.748;19.620;2022-12-18T00:18:48;100273.00;;;-3.30
69007;BMP180;56061;51.748;19.620;2022-12-18T00:21:15;100275.20;;;-3.40
69007;BMP180;56061;51.748;19.620;2022-12-18T00:23:44;100274.40;;;-3.40
69007;BMP180;56061;51.748;19.620;2022-12-18T00:26:16;100278.00;;;-3.30
69007;BMP180;56061;51.748;19.620;2022-12-18T00:28:45;100282.00;;;-3.30
69007;BMP180;56061;51.748;19.620;2022-12-18T00:31:19;100289.20;;;-3.40
69007;BMP180;56061;51.748;19.620;2022-12-18T00:33:46;100294.00;;;-3.40
69007;BMP180;56061;51.748;19.620;2022-12-18T00:36:22;100297.60;;;-3.40
69007;BMP180;56061;51.748;19.620;2022-12-18T00:38:49;100299.60;;;-3.36
69007;BMP180;56061;51.748;19.620;2022-12-18T00:41:18;100299.80;;;-3.40
69007;BMP180;56061;51.748;19.620;2022-12-18T00:44:06;100306.00;;;-3.40
69007;BMP180;56061;51.748;19.620;2022-12-18T00:46:33;100314.00;;;-3.40
69007;BMP180;56061;51.748;19.620;2022-12-18T00:49:00;100320.20;;;-3.36
69007;BMP180;56061;51.748;19.620;2022-12-18T00:51:26;100319.40;;;-3.30
69007;BMP180;56061;51.748;19.620;2022-12-18T00:53:53;100332.80;;;-3.30
69007;BMP180;56061;51.748;19.620;2022-12-18T00:56:20;100322.20;;;-3.30
69007;BMP180;56061;51.748;19.620;2022-12-18T00:58:46;100323.40;;;-3.30
69007;BMP180;56061;51.748;19.620;2022-12-18T01:01:13;100329.40;;;-3.34
69007;BMP180;56061;51.748;19.620;2022-12-18T01:03:40;100337.20;;;-3.38
69007;BMP180;56061;51.748;19.620;2022-12-18T01:06:10;100341.40;;;-3.40
69007;BMP180;56061;51.748;19.620;2022-12-18T01:08:39;100340.20;;;-3.40
69007;BMP180;56061;51.748;19.620;2022-12-18T01:11:12;100342.40;;;-3.40
69007;BMP180;56061;51.748;19.620;2022-12-18T01:13:39;100339.80;;;-3.40
69007;BMP180;56061;51.748;19.620;2022-12-18T01:16:07;100337.00;;;-3.40
69007;BMP180;56061;51.748;19.620;2022-12-18T01:18:34;100344.80;;;-3.40
69007;BMP180;56061;51.748;19.620;2022-12-18T01:21:09;100349.00;;;-3.40
69007;BMP180;56061;51.748;19.620;2022-12-18T01:23:36;100351.80;;;-3.30
69007;BMP180;56061;51.748;19.620;2022-12-18T01:26:09;100349.60;;;-3.24
69007;BMP180;56061;51.748;19.620;2022-12-18T01:28:42;100351.20;;;-3.20
69007;BMP180;56061;51.748;19.620;2022-12-18T01:31:28;100356.60;;;-3.20
69007;BMP180;56061;51.748;19.620;2022-12-18T01:33:55;100359.20;;;-3.30
69007;BMP180;56061;51.748;19.620;2022-12-18T01:36:26;100361.80;;;-3.30
69007;BMP180;56061;51.748;19.620;2022-12-18T01:38:53;100366.20;;;-3.40
69007;BMP180;56061;51.748;19.620;2022-12-18T01:41:25;100365.20;;;-3.40
69007;BMP180;56061;51.748;19.620;2022-12-18T01:43:56;100370.80;;;-3.40
69007;BMP180;56061;51.748;19.620;2022-12-18T01:46:27;100373.20;;;-3.40
69007;BMP180;56061;51.748;19.620;2022-12-18T01:48:57;100376.40;;;-3.40
69007;BMP180;56061;51.748;19.620;2022-12-18T01:51:27;100385.40;;;-3.40
69007;BMP180;56061;51.748;19.620;2022-12-18T01:53:55;100388.80;;;-3.38
69007;BMP180;56061;51.748;19.620;2022-12-18T01:56:22;100386.80;;;-3.42
69007;BMP180;56061;51.748;19.620;2022-12-18T01:59:04;100391.80;;;-3.50
69007;BMP180;56061;51.748;19.620;2022-12-18T02:01:32;100396.20;;;-3.58
69007;BMP180;56061;51.748;19.620;2022-12-18T02:04:23;100398.80;;;-3.60
69007;BMP180;56061;51.748;19.620;2022-12-18T02:07:20;100405.80;;;-3.60
69007;BMP180;56061;51.748;19.620;2022-12-18T02:10:01;100403.40;;;-3.60
69007;BMP180;56061;51.748;19.620;2022-12-18T02:12:43;100402.20;;;-3.60
69007;BMP180;56061;51.748;19.620;2022-12-18T02:15:32;100402.60;;;-3.50
69007;BMP180;56061;51.748;19.620;2022-12-18T02:18:14;100407.00;;;-3.40
69007;BMP180;56061;51.748;19.620;2022-12-18T02:21:28;100418.20;;;-3.40
69007;BMP180;56061;51.748;19.620;2022-12-18T02:24:39;100427.00;;;-3.50
69007;BMP180;56061;51.748;19.620;2022-12-18T02:27:09;100423.20;;;-3.60
69007;BMP180;56061;51.748;19.620;2022-12-18T02:29:55;100423.00;;;-3.70
69007;BMP180;56061;51.748;19.620;2022-12-18T02:32:30;100424.00;;;-3.80
69007;BMP180;56061;51.748;19.620;2022-12-18T02:35:01;100434.00;;;-3.80
69007;BMP180;56061;51.748;19.620;2022-12-18T02:37:30;100434.60;;;-3.80
69007;BMP180;56061;51.748;19.620;2022-12-18T02:39:59;100438.40;;;-3.86
69007;BMP180;56061;51.748;19.620;2022-12-18T02:42:27;100440.80;;;-3.86
69007;BMP180;56061;51.748;19.620;2022-12-18T02:44:54;100448.40;;;-3.90
69007;BMP180;56061;51.748;19.620;2022-12-18T02:47:24;100448.60;;;-3.80
69007;BMP180;56061;51.748;19.620;2022-12-18T02:52:49;100449.20;;;-3.90
69007;BMP180;56061;51.748;19.620;2022-12-18T02:58:30;100451.20;;;-3.90
69007;BMP180;56061;51.748;19.620;2022-12-18T03:01:50;100458.80;;;-3.88
69007;BMP180;56061;51.748;19.620;2022-12-18T03:04:26;100459.20;;;-3.90
69007;BMP180;56061;51.748;19.620;2022-12-18T03:06:58;100454.00;;;-3.90
69007;BMP180;56061;51.748;19.620;2022-12-18T03:09:36;100456.20;;;-3.90
69007;BMP180;56061;51.748;19.620;2022-12-18T03:12:15;100459.20;;;-3.90
69007;BMP180;56061;51.748;19.620;2022-12-18T03:15:16;100455.60;;;-3.90
69007;BMP180;56061;51.748;19.620;2022-12-18T03:17:56;100461.00;;;-3.84
69007;BMP180;56061;51.748;19.620;2022-12-18T03:20:26;100461.80;;;-3.70
69007;BMP180;56061;51.748;19.620;2022-12-18T03:23:04;100467.00;;;-3.78
69007;BMP180;56061;51.748;19.620;2022-12-18T03:25:39;100471.20;;;-3.82
69007;BMP180;56061;51.748;19.620;2022-12-18T03:28:14;100478.40;;;-3.90
69007;BMP180;56061;51.748;19.620;2022-12-18T03:30:44;100475.80;;;-3.86
69007;BMP180;56061;51.748;19.620;2022-12-18T03:33:20;100483.00;;;-3.90
69007;BMP180;56061;51.748;19.620;2022-12-18T03:35:50;100496.00;;;-3.90
69007;BMP180;56061;51.748;19.620;2022-12-18T03:38:17;100500.80;;;-3.80
69007;BMP180;56061;51.748;19.620;2022-12-18T03:41:11;100502.00;;;-3.70
69007;BMP180;56061;51.748;19.620;2022-12-18T03:46:56;100514.20;;;-3.80
69007;BMP180;56061;51.748;19.620;2022-12-18T03:49:36;100514.20;;;-3.80
69007;BMP180;56061;51.748;19.620;2022-12-18T03:52:19;100522.20;;;-3.80
69007;BMP180;56061;51.748;19.620;2022-12-18T03:54:47;100527.00;;;-3.72
69007;BMP180;56061;51.748;19.620;2022-12-18T03:57:22;100528.00;;;-3.76
69007;BMP180;56061;51.748;19.620;2022-12-18T03:59:57;100529.40;;;-3.80
69007;BMP180;56061;51.748;19.620;2022-12-18T04:02:26;100530.00;;;-3.78
69007;BMP180;56061;51.748;19.620;2022-12-18T04:04:58;100524.80;;;-3.70
69007;BMP180;56061;51.748;19.620;2022-12-18T04:07:26;100528.00;;;-3.80
69007;BMP180;56061;51.748;19.620;2022-12-18T04:09:58;100534.60;;;-3.80
69007;BMP180;56061;51.748;19.620;2022-12-18T04:12:29;100537.60;;;-3.70
69007;BMP180;56061;51.748;19.620;2022-12-18T04:14:56;100541.20;;;-3.78
69007;BMP180;56061;51.748;19.620;2022-12-18T04:17:22;100541.80;;;-3.78
69007;BMP180;56061;51.748;19.620;2022-12-18T04:19:50;100541.80;;;-3.78
69007;BMP180;56061;51.748;19.620;2022-12-18T04:22:16;100536.40;;;-3.80
69007;BMP180;56061;51.748;19.620;2022-12-18T04:24:45;100547.60;;;-3.82
69007;BMP180;56061;51.748;19.620;2022-12-18T04:27:12;100547.20;;;-3.86
69007;BMP180;56061;51.748;19.620;2022-12-18T04:29:39;100551.00;;;-3.90
69007;BMP180;56061;51.748;19.620;2022-12-18T04:32:05;100549.60;;;-3.90
69007;BMP180;56061;51.748;19.620;2022-12-18T04:34:32;100556.80;;;-3.90
69007;BMP180;56061;51.748;19.620;2022-12-18T04:36:58;100558.20;;;-3.92
69007;BMP180;56061;51.748;19.620;2022-12-18T04:39:25;100560.60;;;-4.00
69007;BMP180;56061;51.748;19.620;2022-12-18T04:41:51;100565.40;;;-4.00
69007;BMP180;56061;51.748;19.620;2022-12-18T04:44:18;100577.20;;;-4.00
69007;BMP180;56061;51.748;19.620;2022-12-18T04:46:44;100585.60;;;-4.00
69007;BMP180;56061;51.748;19.620;2022-12-18T04:49:11;100583.40;;;-4.00
69007;BMP180;56061;51.748;19.620;2022-12-18T04:51:38;100582.60;;;-3.90
69007;BMP180;56061;51.748;19.620;2022-12-18T04:54:07;100589.80;;;-3.90
69007;BMP180;56061;51.748;19.620;2022-12-18T04:56:34;100585.60;;;-3.80
69007;BMP180;56061;51.748;19.620;2022-12-18T04:59:00;100591.80;;;-3.70
69007;BMP180;56061;51.748;19.620;2022-12-18T05:01:27;100591.60;;;-3.70
69007;BMP180;56061;51.748;19.620;2022-12-18T05:04:01;100596.20;;;-3.70
69007;BMP180;56061;51.748;19.620;2022-12-18T05:06:28;100599.00;;;-3.78
69007;BMP180;56061;51.748;19.620;2022-12-18T05:08:57;100598.00;;;-3.80
69007;BMP180;56061;51.748;19.620;2022-12-18T05:11:24;100605.60;;;-3.80
69007;BMP180;56061;51.748;19.620;2022-12-18T05:13:50;100615.80;;;-3.88
69007;BMP180;56061;51.748;19.620;2022-12-18T05:16:17;100603.60;;;-3.90
69007;BMP180;56061;51.748;19.620;2022-12-18T05:18:43;100610.40;;;-3.90
69007;BMP180;56061;51.748;19.620;2022-12-18T05:21:10;100608.60;;;-3.98
69007;BMP180;56061;51.748;19.620;2022-12-18T05:23:37;100614.40;;;-4.00
69007;BMP180;56061;51.748;19.620;2022-12-18T05:26:06;100616.00;;;-3.94
69007;BMP180;56061;51.748;19.620;2022-12-18T05:28:35;100619.00;;;-3.90
69007;BMP180;56061;51.748;19.620;2022-12-18T05:31:03;100614.40;;;-3.86
69007;BMP180;56061;51.748;19.620;2022-12-18T05:33:33;100619.20;;;-3.80
69007;BMP180;56061;51.748;19.620;2022-12-18T05:36:03;100621.40;;;-3.80
69007;BMP180;56061;51.748;19.620;2022-12-18T05:38:32;100623.80;;;-3.80
69007;BMP180;56061;51.748;19.620;2022-12-18T05:40:58;100628.60;;;-3.88
69007;BMP180;56061;51.748;19.620;2022-12-18T05:43:27;100626.20;;;-3.88
69007;BMP180;56061;51.748;19.620;2022-12-18T05:45:54;100626.00;;;-3.90
69007;BMP180;56061;51.748;19.620;2022-12-18T05:48:22;100623.80;;;-3.90
69007;BMP180;56061;51.748;19.620;2022-12-18T05:50:50;100628.40;;;-3.90
69007;BMP180;56061;51.748;19.620;2022-12-18T05:53:19;100634.80;;;-4.00
69007;BMP180;56061;51.748;19.620;2022-12-18T05:55:46;100640.20;;;-4.00
69007;BMP180;56061;51.748;19.620;2022-12-18T05:58:14;100644.00;;;-4.00
69007;BMP180;56061;51.748;19.620;2022-12-18T06:00:44;100646.00;;;-3.90
69007;BMP180;56061;51.748;19.620;2022-12-18T06:03:13;100650.40;;;-3.98
69007;BMP180;56061;51.748;19.620;2022-12-18T06:05:43;100654.40;;;-3.90
69007;BMP180;56061;51.748;19.620;2022-12-18T06:08:12;100662.20;;;-3.90
69007;BMP180;56061;51.748;19.620;2022-12-18T06:10:40;100662.60;;;-3.88
69007;BMP180;56061;51.748;19.620;2022-12-18T06:13:07;100659.80;;;-3.82
69007;BMP180;56061;51.748;19.620;2022-12-18T06:15:36;100661.20;;;-3.80
69007;BMP180;56061;51.748;19.620;2022-12-18T06:18:03;100663.20;;;-3.86
69007;BMP180;56061;51.748;19.620;2022-12-18T06:20:30;100665.80;;;-3.80
69007;BMP180;56061;51.748;19.620;2022-12-18T06:22:59;100675.80;;;-3.80
69007;BMP180;56061;51.748;19.620;2022-12-18T06:25:26;100679.00;;;-3.80
69007;BMP180;56061;51.748;19.620;2022-12-18T06:27:52;100683.80;;;-3.90
69007;BMP180;56061;51.748;19.620;2022-12-18T06:30:19;100689.80;;;-3.90
69007;BMP180;56061;51.748;19.620;2022-12-18T06:32:48;100690.20;;;-3.90
69007;BMP180;56061;51.748;19.620;2022-12-18T06:35:22;100694.80;;;-3.90
69007;BMP180;56061;51.748;19.620;2022-12-18T06:37:48;100698.00;;;-3.90
69007;BMP180;56061;51.748;19.620;2022-12-18T06:40:15;100701.80;;;-3.90
69007;BMP180;56061;51.748;19.620;2022-12-18T06:42:42;100713.20;;;-3.88
69007;BMP180;56061;51.748;19.620;2022-12-18T06:45:09;100712.80;;;-3.90
69007;BMP180;56061;51.748;19.620;2022-12-18T06:47:37;100719.80;;;-3.88
69007;BMP180;56061;51.748;19.620;2022-12-18T06:50:04;100723.00;;;-3.90
69007;BMP180;56061;51.748;19.620;2022-12-18T06:52:32;100721.20;;;-3.80
69007;BMP180;56061;51.748;19.620;2022-12-18T06:55:00;100727.00;;;-3.80
69007;BMP180;56061;51.748;19.620;2022-12-18T06:57:26;100728.00;;;-3.80
69007;BMP180;56061;51.748;19.620;2022-12-18T06:59:54;100729.60;;;-3.74
69007;BMP180;56061;51.748;19.620;2022-12-18T07:02:20;100740.20;;;-3.80
69007;BMP180;56061;51.748;19.620;2022-12-18T07:04:47;100750.80;;;-3.80
69007;BMP180;56061;51.748;19.620;2022-12-18T07:07:13;100763.20;;;-3.90
69007;BMP180;56061;51.748;19.620;2022-12-18T07:09:40;100759.40;;;-3.90
69007;BMP180;56061;51.748;19.620;2022-12-18T07:12:06;100767.80;;;-3.92
69007;BMP180;56061;51.748;19.620;2022-12-18T07:14:34;100769.80;;;-3.90
69007;BMP180;56061;51.748;19.620;2022-12-18T07:17:00;100764.00;;;-3.90
69007;BMP180;56061;51.748;19.620;2022-12-18T07:19:27;100773.00;;;-3.84
69007;BMP180;56061;51.748;19.620;2022-12-18T07:21:54;100774.00;;;-3.82
69007;BMP180;56061;51.748;19.620;2022-12-18T07:24:20;100783.60;;;-3.80
69007;BMP180;56061;51.748;19.620;2022-12-18T07:26:47;100787.80;;;-3.80
69007;BMP180;56061;51.748;19.620;2022-12-18T07:29:14;100787.40;;;-3.80
69007;BMP180;56061;51.748;19.620;2022-12-18T07:31:40;100788.60;;;-3.70
69007;BMP180;56061;51.748;19.620;2022-12-18T07:34:14;100790.20;;;-3.64
69007;BMP180;56061;51.748;19.620;2022-12-18T07:36:41;100795.20;;;-3.60
69007;BMP180;56061;51.748;19.620;2022-12-18T07:39:09;100797.00;;;-3.60
69007;BMP180;56061;51.748;19.620;2022-12-18T07:41:36;100798.40;;;-3.60
69007;BMP180;56061;51.748;19.620;2022-12-18T07:44:10;100800.00;;;-3.50
69007;BMP180;56061;51.748;19.620;2022-12-18T07:46:37;100798.00;;;-3.56
69007;BMP180;56061;51.748;19.620;2022-12-18T07:49:04;100789.00;;;-3.50
69007;BMP180;56061;51.748;19.620;2022-12-18T07:51:30;100791.80;;;-3.40
69007;BMP180;56061;51.748;19.620;2022-12-18T07:53:57;100788.40;;;-3.30
69007;BMP180;56061;51.748;19.620;2022-12-18T07:56:23;100800.60;;;-3.30
69007;BMP180;56061;51.748;19.620;2022-12-18T07:58:56;100809.00;;;-3.28
69007;BMP180;56061;51.748;19.620;2022-12-18T08:01:22;100808.00;;;-3.22
69007;BMP180;56061;51.748;19.620;2022-12-18T08:03:50;100803.60;;;-3.28
69007;BMP180;56061;51.748;19.620;2022-12-18T08:06:19;100803.20;;;-3.20
69007;BMP180;56061;51.748;19.620;2022-12-18T08:08:55;100811.20;;;-3.10
69007;BMP180;56061;51.748;19.620;2022-12-18T08:11:24;100815.20;;;-3.10
69007;BMP180;56061;51.748;19.620;2022-12-18T08:13:52;100821.00;;;-3.10
69007;BMP180;56061;51.748;19.620;2022-12-18T08:16:19;100826.00;;;-3.10
69007;BMP180;56061;51.748;19.620;2022-12-18T08:18:46;100827.00;;;-3.00
69007;BMP180;56061;51.748;19.620;2022-12-18T08:21:27;100819.20;;;-3.00
69007;BMP180;56061;51.748;19.620;2022-12-18T08:23:58;100822.20;;;-2.92
69007;BMP180;56061;51.748;19.620;2022-12-18T08:26:29;100828.00;;;-2.90
69007;BMP180;56061;51.748;19.620;2022-12-18T08:28:57;100834.20;;;-2.82
69007;BMP180;56061;51.748;19.620;2022-12-18T08:31:27;100828.80;;;-2.70
69007;BMP180;56061;51.748;19.620;2022-12-18T08:33:55;100840.00;;;-2.66
69007;BMP180;56061;51.748;19.620;2022-12-18T08:36:23;100846.40;;;-2.64
69007;BMP180;56061;51.748;19.620;2022-12-18T08:38:50;100836.20;;;-2.60
69007;BMP180;56061;51.748;19.620;2022-12-18T08:41:18;100835.00;;;-2.60
69007;BMP180;56061;51.748;19.620;2022-12-18T08:43:45;100835.20;;;-2.60
69007;BMP180;56061;51.748;19.620;2022-12-18T08:46:40;100842.40;;;-2.60
69007;BMP180;56061;51.748;19.620;2022-12-18T08:49:09;100837.00;;;-2.60
69007;BMP180;56061;51.748;19.620;2022-12-18T08:51:36;100840.60;;;-2.60
69007;BMP180;56061;51.748;19.620;2022-12-18T08:54:04;100846.20;;;-2.60
69007;BMP180;56061;51.748;19.620;2022-12-18T08:56:32;100850.20;;;-2.60
69007;BMP180;56061;51.748;19.620;2022-12-18T08:58:59;100850.60;;;-2.60
69007;BMP180;56061;51.748;19.620;2022-12-18T09:01:26;100849.80;;;-2.60
69007;BMP180;56061;51.748;19.620;2022-12-18T09:03:53;100858.80;;;-2.60
69007;BMP180;56061;51.748;19.620;2022-12-18T09:06:22;100854.60;;;-2.60
69007;BMP180;56061;51.748;19.620;2022-12-18T09:08:49;100862.40;;;-2.60
69007;BMP180;56061;51.748;19.620;2022-12-18T09:11:23;100864.80;;;-2.54
69007;BMP180;56061;51.748;19.620;2022-12-18T09:13:50;100877.80;;;-2.50
69007;BMP180;56061;51.748;19.620;2022-12-18T09:16:18;100882.60;;;-2.50
69007;BMP180;56061;51.748;19.620;2022-12-18T09:18:46;100884.00;;;-2.40
69007;BMP180;56061;51.748;19.620;2022-12-18T09:21:19;100883.00;;;-2.40
69007;BMP180;56061;51.748;19.620;2022-12-18T09:23:50;100880.40;;;-2.40
69007;BMP180;56061;51.748;19.620;2022-12-18T09:26:16;100876.80;;;-2.40
69007;BMP180;56061;51.748;19.620;2022-12-18T09:28:43;100877.40;;;-2.38
69007;BMP180;56061;51.748;19.620;2022-12-18T09:31:12;100874.20;;;-2.30
69007;BMP180;56061;51.748;19.620;2022-12-18T09:33:39;100875.60;;;-2.30
69007;BMP180;56061;51.748;19.620;2022-12-18T09:36:09;100882.00;;;-2.34
69007;BMP180;56061;51.748;19.620;2022-12-18T09:38:37;100883.60;;;-2.36
69007;BMP180;56061;51.748;19.620;2022-12-18T09:41:39;100882.00;;;-2.40
69007;BMP180;56061;51.748;19.620;2022-12-18T09:44:23;100877.60;;;-2.40
69007;BMP180;56061;51.748;19.620;2022-12-18T09:47:27;100886.80;;;-2.30
69007;BMP180;56061;51.748;19.620;2022-12-18T09:50:21;100889.40;;;-2.30
69007;BMP180;56061;51.748;19.620;2022-12-18T09:52:54;100885.20;;;-2.30
69007;BMP180;56061;51.748;19.620;2022-12-18T09:55:29;100884.20;;;-2.30
69007;BMP180;56061;51.748;19.620;2022-12-18T09:58:45;100893.60;;;-2.30
69007;BMP180;56061;51.748;19.620;2022-12-18T10:01:20;100893.00;;;-2.30
69007;BMP180;56061;51.748;19.620;2022-12-18T10:03:48;100885.80;;;-2.30
69007;BMP180;56061;51.748;19.620;2022-12-18T10:06:22;100894.00;;;-2.40
69007;BMP180;56061;51.748;19.620;2022-12-18T10:09:34;100898.60;;;-2.40
69007;BMP180;56061;51.748;19.620;2022-12-18T10:12:34;100885.00;;;-2.40
69007;BMP180;56061;51.748;19.620;2022-12-18T10:15:30;100886.60;;;-2.40
69007;BMP180;56061;51.748;19.620;2022-12-18T10:18:35;100886.00;;;-2.30
69007;BMP180;56061;51.748;19.620;2022-12-18T10:21:18;100885.00;;;-2.30
69007;BMP180;56061;51.748;19.620;2022-12-18T10:26:31;100886.60;;;-2.50
69007;BMP180;56061;51.748;19.620;2022-12-18T10:28:59;100885.80;;;-2.54
69007;BMP180;56061;51.748;19.620;2022-12-18T10:31:31;100890.60;;;-2.50
69007;BMP180;56061;51.748;19.620;2022-12-18T10:33:58;100892.40;;;-2.50
69007;BMP180;56061;51.748;19.620;2022-12-18T10:36:25;100892.40;;;-2.50
69007;BMP180;56061;51.748;19.620;2022-12-18T10:38:51;100892.00;;;-2.60
69007;BMP180;56061;51.748;19.620;2022-12-18T10:43:48;100893.20;;;-2.50
69007;BMP180;56061;51.748;19.620;2022-12-18T10:46:19;100896.60;;;-2.50
69007;BMP180;56061;51.748;19.620;2022-12-18T10:51:26;100897.20;;;-2.40
69007;BMP180;56061;51.748;19.620;2022-12-18T10:54:04;100896.60;;;-2.40
69007;BMP180;56061;51.748;19.620;2022-12-18T10:56:36;100902.60;;;-2.30
69007;BMP180;56061;51.748;19.620;2022-12-18T10:59:06;100900.60;;;-2.30
69007;BMP180;56061;51.748;19.620;2022-12-18T11:01:48;100894.20;;;-2.30
69007;BMP180;56061;51.748;19.620;2022-12-18T11:04:25;100894.20;;;-2.40
69007;BMP180;56061;51.748;19.620;2022-12-18T11:07:01;100899.20;;;-2.40
69007;BMP180;56061;51.748;19.620;2022-12-18T11:09:32;100901.00;;;-2.40
69007;BMP180;56061;51.748;19.620;2022-12-18T11:12:08;100907.00;;;-2.30
69007;BMP180;56061;51.748;19.620;2022-12-18T11:14:51;100906.00;;;-2.30
69007;BMP180;56061;51.748;19.620;2022-12-18T11:17:31;100904.80;;;-2.40
69007;BMP180;56061;51.748;19.620;2022-12-18T11:20:01;100911.80;;;-2.40
69007;BMP180;56061;51.748;19.620;2022-12-18T11:22:35;100916.20;;;-2.30
69007;BMP180;56061;51.748;19.620;2022-12-18T11:25:17;100920.80;;;-2.30
69007;BMP180;56061;51.748;19.620;2022-12-18T11:28:28;100912.20;;;-2.30
69007;BMP180;56061;51.748;19.620;2022-12-18T11:31:25;100908.40;;;-2.30
69007;BMP180;56061;51.748;19.620;2022-12-18T11:36:48;100902.60;;;-2.20
69007;BMP180;56061;51.748;19.620;2022-12-18T11:39:40;100903.00;;;-2.30
69007;BMP180;56061;51.748;19.620;2022-12-18T11:44:59;100893.60;;;-2.40
69007;BMP180;56061;51.748;19.620;2022-12-18T11:48:17;100901.60;;;-2.40
69007;BMP180;56061;51.748;19.620;2022-12-18T11:51:00;100895.80;;;-2.30
69007;BMP180;56061;51.748;19.620;2022-12-18T11:53:29;100897.40;;;-2.32
69007;BMP180;56061;51.748;19.620;2022-12-18T11:56:25;100899.20;;;-2.40
69007;BMP180;56061;51.748;19.620;2022-12-18T11:59:12;100896.40;;;-2.50
69007;BMP180;56061;51.748;19.620;2022-12-18T12:01:52;100891.60;;;-2.50
69007;BMP180;56061;51.748;19.620;2022-12-18T12:13:23;100910.40;;;-2.60
69007;BMP180;56061;51.748;19.620;2022-12-18T12:16:12;100918.60;;;-2.60
69007;BMP180;56061;51.748;19.620;2022-12-18T12:19:26;100929.00;;;-2.70
69007;BMP180;56061;51.748;19.620;2022-12-18T12:22:37;100929.40;;;-2.70
69007;BMP180;56061;51.748;19.620;2022-12-18T12:25:56;100938.80;;;-2.80
69007;BMP180;56061;51.748;19.620;2022-12-18T12:31:56;100946.60;;;-2.96
69007;BMP180;56061;51.748;19.620;2022-12-18T12:37:51;100935.20;;;-2.90
69007;BMP180;56061;51.748;19.620;2022-12-18T12:40:26;100938.60;;;-2.90
69007;BMP180;56061;51.748;19.620;2022-12-18T12:43:37;100941.60;;;-2.90
69007;BMP180;56061;51.748;19.620;2022-12-18T12:46:17;100945.80;;;-2.90
69007;BMP180;56061;51.748;19.620;2022-12-18T12:48:56;100944.20;;;-3.00
69007;BMP180;56061;51.748;19.620;2022-12-18T12:51:32;100952.20;;;-2.90
69007;BMP180;56061;51.748;19.620;2022-12-18T12:54:04;100951.40;;;-2.90
69007;BMP180;56061;51.748;19.620;2022-12-18T13:08:27;100972.20;;;-2.80
69007;BMP180;56061;51.748;19.620;2022-12-18T13:10:58;100974.00;;;-2.90
69007;BMP180;56061;51.748;19.620;2022-12-18T13:13:51;100969.60;;;-3.00
69007;BMP180;56061;51.748;19.620;2022-12-18T13:16:24;100975.60;;;-3.00
69007;BMP180;56061;51.748;19.620;2022-12-18T13:18:54;100976.80;;;-3.08
69007;BMP180;56061;51.748;19.620;2022-12-18T13:21:32;100977.60;;;-3.10
69007;BMP180;56061;51.748;19.620;2022-12-18T13:24:23;100973.60;;;-3.10
69007;BMP180;56061;51.748;19.620;2022-12-18T13:26:51;100967.00;;;-3.20
69007;BMP180;56061;51.748;19.620;2022-12-18T13:29:42;100969.20;;;-3.20
69007;BMP180;56061;51.748;19.620;2022-12-18T13:32:24;100972.40;;;-3.30
69007;BMP180;56061;51.748;19.620;2022-12-18T13:37:52;100982.00;;;-3.40
69007;BMP180;56061;51.748;19.620;2022-12-18T13:45:59;100978.80;;;-3.42
69007;BMP180;56061;51.748;19.620;2022-12-18T13:48:27;100979.00;;;-3.50
69007;BMP180;56061;51.748;19.620;2022-12-18T13:51:07;100985.00;;;-3.50
69007;BMP180;56061;51.748;19.620;2022-12-18T13:53:43;100991.20;;;-3.50
69007;BMP180;56061;51.748;19.620;2022-12-18T13:56:17;101002.20;;;-3.50
69007;BMP180;56061;51.748;19.620;2022-12-18T13:58:43;101004.20;;;-3.58
69007;BMP180;56061;51.748;19.620;2022-12-18T14:01:23;101003.40;;;-3.60
69007;BMP180;56061;51.748;19.620;2022-12-18T14:03:51;101005.20;;;-3.60
69007;BMP180;56061;51.748;19.620;2022-12-18T14:06:18;101014.80;;;-3.64
69007;BMP180;56061;51.748;19.620;2022-12-18T14:08:46;101023.80;;;-3.70
69007;BMP180;56061;51.748;19.620;2022-12-18T14:11:22;101026.00;;;-3.80
69007;BMP180;56061;51.748;19.620;2022-12-18T14:13:52;101029.00;;;-3.96
69007;BMP180;56061;51.748;19.620;2022-12-18T14:16:19;101021.80;;;-4.06
69007;BMP180;56061;51.748;19.620;2022-12-18T14:18:54;101034.60;;;-4.20
69007;BMP180;56061;51.748;19.620;2022-12-18T14:21:30;101029.80;;;-4.30
69007;BMP180;56061;51.748;19.620;2022-12-18T14:24:18;101029.80;;;-4.30
69007;BMP180;56061;51.748;19.620;2022-12-18T14:26:47;101029.00;;;-4.40
69007;BMP180;56061;51.748;19.620;2022-12-18T14:32:24;101023.80;;;-4.50
69007;BMP180;56061;51.748;19.620;2022-12-18T14:34:52;101027.60;;;-4.50
69007;BMP180;56061;51.748;19.620;2022-12-18T14:37:27;101020.00;;;-4.60
69007;BMP180;56061;51.748;19.620;2022-12-18T14:39:59;101020.20;;;-4.68
69007;BMP180;56061;51.748;19.620;2022-12-18T14:42:36;101009.60;;;-4.70
69007;BMP180;56061;51.748;19.620;2022-12-18T14:45:42;101006.60;;;-4.80
69007;BMP180;56061;51.748;19.620;2022-12-18T14:48:18;101010.20;;;-4.78
69007;BMP180;56061;51.748;19.620;2022-12-18T14:53:44;101015.60;;;-4.70
69007;BMP180;56061;51.748;19.620;2022-12-18T14:56:26;101021.80;;;-4.70
69007;BMP180;56061;51.748;19.620;2022-12-18T14:58:58;101018.00;;;-4.70
69007;BMP180;56061;51.748;19.620;2022-12-18T15:01:28;101022.80;;;-4.70
69007;BMP180;56061;51.748;19.620;2022-12-18T15:03:58;101022.60;;;-4.62
69007;BMP180;56061;51.748;19.620;2022-12-18T15:06:33;101024.80;;;-4.60
69007;BMP180;56061;51.748;19.620;2022-12-18T15:09:06;101026.80;;;-4.60
69007;BMP180;56061;51.748;19.620;2022-12-18T15:11:46;101029.00;;;-4.60
69007;BMP180;56061;51.748;19.620;2022-12-18T15:14:55;101030.80;;;-4.60
69007;BMP180;56061;51.748;19.620;2022-12-18T15:17:23;101043.20;;;-4.68
69007;BMP180;56061;51.748;19.620;2022-12-18T15:20:00;101043.40;;;-4.70
69007;BMP180;56061;51.748;19.620;2022-12-18T15:22:35;101041.20;;;-4.70
69007;BMP180;56061;51.748;19.620;2022-12-18T15:25:28;101038.00;;;-4.78